PAL2531 RPLL-NZAA
Flight info
| Callsign | PAL2531 |
|---|---|
| Flight time | N/A |
| Altitude | 35000 |
| Route | IPATA2R IPATA B462 KAPPU/N0485F370 B462 PY B333 ISTEM/N0477F390 B333 SALAG |
| Aircraft | A346/H-SDE2E3FGHIJ3J4J5M1RWXY/LB1D1 |
Departure
| Time | 2026-05-03 23:41 |
|---|---|
| Airport | Ninoy Aquino International Airport (RPLL) |
Arrival
| Time | N/A |
|---|---|
| Airport | Auckland International Airport (NZAA) |
| Time | Latitude | Longitude | Altitude | Speed | Heading |
|---|---|---|---|---|---|
| 2026-05-03 23:17 | 14.50516 | 121.00728 | 93 ft | 0 kts | 277° |
| 2026-05-03 23:30 | 14.50514 | 121.00739 | 93 ft | 2 kts | 277° |
| 2026-05-03 23:30 | 14.50512 | 121.00754 | 93 ft | 2 kts | 277° |
| 2026-05-03 23:30 | 14.50510 | 121.00770 | 93 ft | 2 kts | 277° |
| 2026-05-03 23:31 | 14.50509 | 121.00785 | 93 ft | 2 kts | 277° |
| 2026-05-03 23:31 | 14.50507 | 121.00800 | 93 ft | 2 kts | 277° |
| 2026-05-03 23:31 | 14.50505 | 121.00816 | 93 ft | 2 kts | 277° |
| 2026-05-03 23:31 | 14.50503 | 121.00832 | 93 ft | 2 kts | 278° |
| 2026-05-03 23:32 | 14.50501 | 121.00847 | 93 ft | 2 kts | 278° |
| 2026-05-03 23:32 | 14.50499 | 121.00862 | 93 ft | 2 kts | 265° |
| 2026-05-03 23:32 | 14.50504 | 121.00877 | 93 ft | 2 kts | 239° |
| 2026-05-03 23:32 | 14.50512 | 121.00890 | 93 ft | 2 kts | 240° |
| 2026-05-03 23:33 | 14.50519 | 121.00903 | 93 ft | 2 kts | 243° |
| 2026-05-03 23:33 | 14.50524 | 121.00914 | 93 ft | 0 kts | 243° |
| 2026-05-03 23:36 | 14.50519 | 121.00903 | 93 ft | 3 kts | 243° |
| 2026-05-03 23:36 | 14.50502 | 121.00871 | 93 ft | 6 kts | 242° |
| 2026-05-03 23:36 | 14.50460 | 121.00832 | 93 ft | 9 kts | 206° |
| 2026-05-03 23:36 | 14.50394 | 121.00799 | 93 ft | 11 kts | 218° |
| 2026-05-03 23:37 | 14.50341 | 121.00728 | 93 ft | 13 kts | 240° |
| 2026-05-03 23:37 | 14.50296 | 121.00641 | 93 ft | 14 kts | 239° |
| 2026-05-03 23:37 | 14.50241 | 121.00549 | 93 ft | 15 kts | 239° |
| 2026-05-03 23:37 | 14.50184 | 121.00447 | 93 ft | 16 kts | 240° |
| 2026-05-03 23:38 | 14.50126 | 121.00343 | 93 ft | 17 kts | 240° |
| 2026-05-03 23:38 | 14.50066 | 121.00233 | 93 ft | 17 kts | 240° |
| 2026-05-03 23:38 | 14.50004 | 121.00121 | 93 ft | 18 kts | 240° |
| 2026-05-03 23:38 | 14.49950 | 121.00025 | 93 ft | 14 kts | 240° |
| 2026-05-03 23:39 | 14.49895 | 120.99971 | 93 ft | 9 kts | 184° |
| 2026-05-03 23:39 | 14.49825 | 120.99997 | 93 ft | 10 kts | 142° |
| 2026-05-03 23:39 | 14.49813 | 121.00060 | 93 ft | 10 kts | 64° |
| 2026-05-03 23:39 | 14.49852 | 121.00134 | 93 ft | 12 kts | 60° |
| 2026-05-03 23:40 | 14.49886 | 121.00196 | 93 ft | 9 kts | 60° |
| 2026-05-03 23:40 | 14.49981 | 121.00366 | 93 ft | 57 kts | 60° |
| 2026-05-03 23:40 | 14.50293 | 121.00921 | 93 ft | 119 kts | 59° |
| 2026-05-03 23:40 | 14.50794 | 121.01830 | 93 ft | 169 kts | 60° |
| 2026-05-03 23:41 | 14.51399 | 121.02926 | 544 ft | 170 kts | 60° |
| 2026-05-03 23:41 | 14.51954 | 121.03929 | 1121 ft | 160 kts | 60° |
| 2026-05-03 23:41 | 14.52508 | 121.04918 | 1523 ft | 163 kts | 60° |
| 2026-05-03 23:41 | 14.53098 | 121.05974 | 1821 ft | 175 kts | 60° |
| 2026-05-03 23:42 | 14.53724 | 121.07098 | 2132 ft | 185 kts | 60° |
| 2026-05-03 23:42 | 14.54379 | 121.08278 | 2381 ft | 196 kts | 60° |
| 2026-05-03 23:42 | 14.55081 | 121.09544 | 2634 ft | 209 kts | 60° |
| 2026-05-03 23:42 | 14.55827 | 121.10889 | 2891 ft | 224 kts | 60° |
| 2026-05-03 23:43 | 14.56624 | 121.12340 | 3180 ft | 241 kts | 64° |
| 2026-05-03 23:43 | 14.56988 | 121.14061 | 3487 ft | 255 kts | 99° |
| 2026-05-03 23:43 | 14.56268 | 121.15696 | 4032 ft | 259 kts | 133° |
| 2026-05-03 23:43 | 14.54924 | 121.16939 | 4725 ft | 259 kts | 141° |
| 2026-05-03 23:44 | 14.53517 | 121.18079 | 5346 ft | 262 kts | 141° |
| 2026-05-03 23:44 | 14.52101 | 121.19263 | 5969 ft | 265 kts | 140° |
| 2026-05-03 23:44 | 14.50702 | 121.20489 | 6600 ft | 267 kts | 139° |
| 2026-05-03 23:44 | 14.49295 | 121.21766 | 7236 ft | 270 kts | 138° |
| 2026-05-03 23:45 | 14.47907 | 121.23051 | 7858 ft | 272 kts | 137° |
| 2026-05-03 23:45 | 14.46494 | 121.24377 | 8478 ft | 275 kts | 137° |
| 2026-05-03 23:45 | 14.45129 | 121.25667 | 9061 ft | 277 kts | 137° |
| 2026-05-03 23:45 | 14.43664 | 121.27058 | 9671 ft | 280 kts | 137° |
| 2026-05-03 23:46 | 14.42228 | 121.28425 | 10251 ft | 283 kts | 137° |
| 2026-05-03 23:46 | 14.40748 | 121.29834 | 10606 ft | 294 kts | 137° |
| 2026-05-03 23:46 | 14.39214 | 121.31296 | 10865 ft | 308 kts | 137° |
| 2026-05-03 23:46 | 14.37595 | 121.32841 | 11131 ft | 323 kts | 137° |
| 2026-05-03 23:47 | 14.35913 | 121.34444 | 11401 ft | 338 kts | 137° |
| 2026-05-03 23:47 | 14.34159 | 121.36118 | 11665 ft | 353 kts | 137° |
| 2026-05-03 23:47 | 14.32316 | 121.37875 | 11941 ft | 366 kts | 137° |
| 2026-05-03 23:47 | 14.30438 | 121.39665 | 12425 ft | 373 kts | 137° |
| 2026-05-03 23:48 | 14.28536 | 121.41478 | 13056 ft | 376 kts | 137° |
| 2026-05-03 23:48 | 14.26595 | 121.43327 | 13668 ft | 379 kts | 137° |
| 2026-05-03 23:48 | 14.24667 | 121.45164 | 14237 ft | 382 kts | 137° |
| 2026-05-03 23:48 | 14.22710 | 121.47028 | 14801 ft | 385 kts | 137° |
| 2026-05-03 23:49 | 14.20753 | 121.48891 | 15348 ft | 389 kts | 137° |
| 2026-05-03 23:49 | 14.18760 | 121.50788 | 15891 ft | 392 kts | 137° |
| 2026-05-03 23:49 | 14.16740 | 121.52711 | 16428 ft | 395 kts | 137° |
| 2026-05-03 23:49 | 14.14726 | 121.54627 | 16949 ft | 398 kts | 137° |
| 2026-05-03 23:50 | 14.12678 | 121.56575 | 17464 ft | 401 kts | 137° |
| 2026-05-03 23:50 | 14.11327 | 121.57860 | 17797 ft | 404 kts | 137° |
| 2026-05-03 23:50 | 14.08559 | 121.60491 | 18458 ft | 408 kts | 137° |
| 2026-05-03 23:50 | 14.06493 | 121.62454 | 18935 ft | 411 kts | 137° |
| 2026-05-03 23:51 | 14.04379 | 121.64463 | 19410 ft | 414 kts | 137° |
| 2026-05-03 23:51 | 14.02229 | 121.66505 | 19881 ft | 417 kts | 137° |
| 2026-05-03 23:51 | 14.00098 | 121.68528 | 20341 ft | 420 kts | 137° |
| 2026-05-03 23:51 | 13.97956 | 121.70561 | 20784 ft | 423 kts | 137° |
| 2026-05-03 23:52 | 13.95799 | 121.72607 | 21217 ft | 426 kts | 137° |
| 2026-05-03 23:52 | 13.93598 | 121.74695 | 21652 ft | 428 kts | 137° |
| 2026-05-03 23:52 | 13.91427 | 121.76753 | 22070 ft | 431 kts | 137° |
| 2026-05-03 23:52 | 13.89215 | 121.78852 | 22485 ft | 434 kts | 137° |
| 2026-05-03 23:53 | 13.87043 | 121.81022 | 22889 ft | 437 kts | 134° |
| 2026-05-03 23:53 | 13.84973 | 121.83335 | 23288 ft | 440 kts | 131° |
| 2026-05-03 23:53 | 13.82986 | 121.85749 | 23682 ft | 442 kts | 130° |
| 2026-05-03 23:53 | 13.81034 | 121.88145 | 24060 ft | 445 kts | 130° |
| 2026-05-03 23:54 | 13.79044 | 121.90591 | 24436 ft | 448 kts | 130° |
| 2026-05-03 23:54 | 13.77018 | 121.93079 | 24815 ft | 450 kts | 130° |
| 2026-05-03 23:54 | 13.75015 | 121.95537 | 25174 ft | 453 kts | 130° |
| 2026-05-03 23:54 | 13.72989 | 121.98020 | 25525 ft | 456 kts | 130° |
| 2026-05-03 23:55 | 13.70958 | 122.00509 | 25871 ft | 458 kts | 130° |
| 2026-05-03 23:55 | 13.68888 | 122.03043 | 26216 ft | 461 kts | 130° |
| 2026-05-03 23:55 | 13.66823 | 122.05570 | 26551 ft | 463 kts | 130° |
| 2026-05-03 23:55 | 13.64771 | 122.08081 | 26874 ft | 466 kts | 130° |
| 2026-05-03 23:56 | 13.62685 | 122.10632 | 27195 ft | 468 kts | 130° |
| 2026-05-03 23:56 | 13.60594 | 122.13188 | 27516 ft | 470 kts | 130° |
| 2026-05-03 23:56 | 13.58468 | 122.15787 | 27824 ft | 473 kts | 130° |
| 2026-05-03 23:56 | 13.56357 | 122.18366 | 28127 ft | 475 kts | 130° |
| 2026-05-03 23:57 | 13.54233 | 122.20959 | 28525 ft | 475 kts | 130° |
| 2026-05-03 23:57 | 13.52112 | 122.23550 | 28977 ft | 473 kts | 130° |
| 2026-05-03 23:57 | 13.50001 | 122.26128 | 29408 ft | 472 kts | 130° |
| 2026-05-03 23:57 | 13.47898 | 122.28693 | 29809 ft | 471 kts | 130° |
| 2026-05-03 23:58 | 13.45794 | 122.31261 | 30192 ft | 471 kts | 130° |
| 2026-05-03 23:58 | 13.43762 | 122.33739 | 30555 ft | 470 kts | 130° |
| 2026-05-03 23:58 | 13.41656 | 122.36307 | 30926 ft | 470 kts | 130° |
| 2026-05-03 23:58 | 13.39568 | 122.38852 | 31287 ft | 469 kts | 130° |
| 2026-05-03 23:59 | 13.37458 | 122.41423 | 31642 ft | 469 kts | 130° |
| 2026-05-03 23:59 | 13.35359 | 122.43980 | 31986 ft | 468 kts | 130° |
| 2026-05-03 23:59 | 13.33273 | 122.46521 | 32319 ft | 468 kts | 130° |
| 2026-05-03 23:59 | 13.31193 | 122.49053 | 32643 ft | 467 kts | 130° |
| 2026-05-04 00:00 | 13.29110 | 122.51588 | 32959 ft | 467 kts | 130° |
| 2026-05-04 00:00 | 13.27027 | 122.54123 | 33261 ft | 467 kts | 130° |
| 2026-05-04 00:00 | 13.24931 | 122.56673 | 33522 ft | 467 kts | 130° |
| 2026-05-04 00:00 | 13.22829 | 122.59229 | 33748 ft | 468 kts | 130° |
| 2026-05-04 00:01 | 13.20739 | 122.61771 | 33962 ft | 469 kts | 130° |
| 2026-05-04 00:01 | 13.18619 | 122.64347 | 34175 ft | 470 kts | 130° |
| 2026-05-04 00:01 | 13.16511 | 122.66908 | 34383 ft | 471 kts | 130° |
| 2026-05-04 00:01 | 13.14391 | 122.69482 | 34583 ft | 472 kts | 130° |
| 2026-05-04 00:02 | 13.12278 | 122.72047 | 34773 ft | 473 kts | 130° |
| 2026-05-04 00:02 | 13.10143 | 122.74639 | 34954 ft | 474 kts | 130° |
| 2026-05-04 00:02 | 13.05902 | 122.79785 | 35009 ft | 476 kts | 130° |
| 2026-05-04 00:03 | 13.01627 | 122.84969 | 35012 ft | 476 kts | 130° |
| 2026-05-04 00:03 | 12.97358 | 122.90142 | 35012 ft | 476 kts | 130° |
| 2026-05-04 00:04 | 12.93109 | 122.95288 | 35012 ft | 476 kts | 130° |
| 2026-05-04 00:04 | 12.88807 | 123.00496 | 35012 ft | 476 kts | 130° |
| 2026-05-04 00:05 | 12.84550 | 123.05645 | 35012 ft | 476 kts | 130° |
| 2026-05-04 00:05 | 12.80341 | 123.10735 | 35012 ft | 476 kts | 130° |
| 2026-05-04 00:06 | 12.76051 | 123.15919 | 35012 ft | 476 kts | 130° |
| 2026-05-04 00:06 | 12.71786 | 123.21069 | 35012 ft | 476 kts | 130° |
| 2026-05-04 00:07 | 12.67517 | 123.26221 | 35012 ft | 476 kts | 130° |
| 2026-05-04 00:07 | 12.63227 | 123.31397 | 35012 ft | 476 kts | 130° |
| 2026-05-04 00:08 | 12.58949 | 123.36554 | 35012 ft | 476 kts | 130° |
| 2026-05-04 00:08 | 12.54743 | 123.41621 | 35012 ft | 476 kts | 130° |
| 2026-05-04 00:09 | 12.50440 | 123.46803 | 35012 ft | 476 kts | 130° |
| 2026-05-04 00:09 | 12.46135 | 123.51984 | 35012 ft | 476 kts | 130° |
| 2026-05-04 00:10 | 12.41843 | 123.57144 | 35012 ft | 476 kts | 130° |
| 2026-05-04 00:10 | 12.37545 | 123.62310 | 35012 ft | 476 kts | 130° |
| 2026-05-04 00:11 | 12.33323 | 123.67480 | 35012 ft | 476 kts | 129° |
| 2026-05-04 00:11 | 12.29171 | 123.72627 | 35012 ft | 476 kts | 129° |
| 2026-05-04 00:12 | 12.24970 | 123.77824 | 35012 ft | 476 kts | 130° |
| 2026-05-04 00:12 | 12.20720 | 123.83070 | 35012 ft | 476 kts | 130° |
| 2026-05-04 00:13 | 12.16463 | 123.88321 | 35012 ft | 476 kts | 130° |
| 2026-05-04 00:13 | 12.12208 | 123.93565 | 35012 ft | 476 kts | 130° |
| 2026-05-04 00:14 | 12.07971 | 123.98782 | 35012 ft | 476 kts | 130° |
| 2026-05-04 00:14 | 12.03752 | 124.03976 | 35012 ft | 476 kts | 130° |
| 2026-05-04 00:15 | 11.99488 | 124.09221 | 35012 ft | 476 kts | 130° |
| 2026-05-04 00:15 | 11.95248 | 124.14434 | 35012 ft | 476 kts | 130° |
| 2026-05-04 00:16 | 11.90999 | 124.19654 | 35012 ft | 476 kts | 130° |
| 2026-05-04 00:16 | 11.86846 | 124.24754 | 35012 ft | 476 kts | 130° |
| 2026-05-04 00:17 | 11.82668 | 124.29885 | 35012 ft | 476 kts | 129° |
| 2026-05-04 00:17 | 11.78431 | 124.35088 | 35012 ft | 476 kts | 130° |
| 2026-05-04 00:18 | 11.74158 | 124.40330 | 35012 ft | 476 kts | 130° |
| 2026-05-04 00:18 | 11.69920 | 124.45525 | 35012 ft | 476 kts | 130° |
| 2026-05-04 00:19 | 11.65665 | 124.50737 | 35012 ft | 476 kts | 130° |
| 2026-05-04 00:19 | 11.61400 | 124.55959 | 35012 ft | 476 kts | 130° |
| 2026-05-04 00:20 | 11.57129 | 124.61185 | 35012 ft | 476 kts | 130° |
| 2026-05-04 00:20 | 11.52895 | 124.66361 | 35012 ft | 476 kts | 130° |
| 2026-05-04 00:21 | 11.48635 | 124.71570 | 35012 ft | 476 kts | 130° |
| 2026-05-04 00:21 | 11.44379 | 124.76774 | 35012 ft | 476 kts | 130° |
| 2026-05-04 00:22 | 11.40104 | 124.81996 | 35012 ft | 476 kts | 130° |
| 2026-05-04 00:22 | 11.35863 | 124.87172 | 35012 ft | 476 kts | 130° |
| 2026-05-04 00:23 | 11.31609 | 124.92360 | 35012 ft | 476 kts | 130° |
| 2026-05-04 00:23 | 11.27360 | 124.97539 | 35012 ft | 476 kts | 130° |
| 2026-05-04 00:24 | 11.22973 | 125.02633 | 35012 ft | 476 kts | 134° |
| 2026-05-04 00:24 | 11.18137 | 125.07291 | 35012 ft | 476 kts | 138° |
| 2026-05-04 00:25 | 11.13197 | 125.11821 | 35012 ft | 476 kts | 138° |
| 2026-05-04 00:25 | 11.08248 | 125.16359 | 35012 ft | 476 kts | 138° |
| 2026-05-04 00:26 | 11.03331 | 125.20873 | 35012 ft | 476 kts | 138° |
| 2026-05-04 00:26 | 10.98371 | 125.25424 | 35012 ft | 476 kts | 138° |
| 2026-05-04 00:27 | 10.93422 | 125.29964 | 35012 ft | 476 kts | 138° |
| 2026-05-04 00:27 | 10.88474 | 125.34506 | 35012 ft | 476 kts | 138° |
| 2026-05-04 00:28 | 10.83556 | 125.39017 | 35012 ft | 476 kts | 138° |
| 2026-05-04 00:28 | 10.78662 | 125.43503 | 35012 ft | 476 kts | 138° |
| 2026-05-04 00:29 | 10.73746 | 125.48006 | 35012 ft | 476 kts | 138° |
| 2026-05-04 00:29 | 10.68814 | 125.52521 | 35012 ft | 476 kts | 138° |
| 2026-05-04 00:30 | 10.63915 | 125.57004 | 35012 ft | 476 kts | 138° |
| 2026-05-04 00:30 | 10.59024 | 125.61478 | 35012 ft | 476 kts | 138° |
| 2026-05-04 00:31 | 10.54102 | 125.65977 | 35012 ft | 476 kts | 138° |
| 2026-05-04 00:31 | 10.49173 | 125.70482 | 35012 ft | 476 kts | 138° |
| 2026-05-04 00:32 | 10.44277 | 125.74954 | 35012 ft | 476 kts | 138° |
| 2026-05-04 00:32 | 10.39338 | 125.79464 | 35012 ft | 476 kts | 138° |
| 2026-05-04 00:33 | 10.31984 | 125.86173 | 35012 ft | 476 kts | 138° |
| 2026-05-04 00:34 | 10.27062 | 125.90662 | 35012 ft | 476 kts | 138° |
| 2026-05-04 00:34 | 10.22145 | 125.95145 | 35012 ft | 476 kts | 138° |
| 2026-05-04 00:35 | 10.17208 | 125.99644 | 35012 ft | 476 kts | 138° |
| 2026-05-04 00:35 | 10.12286 | 126.04126 | 35012 ft | 476 kts | 138° |
| 2026-05-04 00:36 | 10.07371 | 126.08601 | 35012 ft | 476 kts | 138° |
| 2026-05-04 00:36 | 10.02482 | 126.13050 | 35012 ft | 476 kts | 138° |
| 2026-05-04 00:37 | 9.97545 | 126.17542 | 35012 ft | 476 kts | 138° |
| 2026-05-04 00:37 | 9.92637 | 126.22005 | 35012 ft | 476 kts | 138° |
| 2026-05-04 00:38 | 9.87735 | 126.26460 | 35012 ft | 476 kts | 138° |
| 2026-05-04 00:38 | 9.82830 | 126.30915 | 35012 ft | 476 kts | 138° |
| 2026-05-04 00:39 | 9.77914 | 126.35378 | 35012 ft | 476 kts | 138° |
| 2026-05-04 00:39 | 9.72981 | 126.39857 | 35012 ft | 476 kts | 138° |
| 2026-05-04 00:40 | 9.68069 | 126.44314 | 35012 ft | 476 kts | 138° |
| 2026-05-04 00:40 | 9.63121 | 126.48802 | 35012 ft | 476 kts | 138° |
| 2026-05-04 00:41 | 9.58197 | 126.53266 | 35012 ft | 476 kts | 138° |
| 2026-05-04 00:41 | 9.53280 | 126.57722 | 35012 ft | 476 kts | 138° |
| 2026-05-04 00:42 | 9.48351 | 126.62187 | 35012 ft | 476 kts | 138° |
| 2026-05-04 00:42 | 9.43446 | 126.66630 | 35012 ft | 476 kts | 138° |
| 2026-05-04 00:43 | 9.38515 | 126.71093 | 35012 ft | 476 kts | 138° |
| 2026-05-04 00:43 | 9.33577 | 126.75561 | 35012 ft | 476 kts | 138° |
| 2026-05-04 00:44 | 9.28670 | 126.79999 | 35012 ft | 476 kts | 138° |
| 2026-05-04 00:44 | 9.23731 | 126.84463 | 35012 ft | 476 kts | 138° |
| 2026-05-04 00:45 | 9.18803 | 126.88917 | 35012 ft | 476 kts | 138° |
| 2026-05-04 00:45 | 9.13888 | 126.93357 | 35012 ft | 476 kts | 138° |
| 2026-05-04 00:46 | 9.08936 | 126.97829 | 35012 ft | 476 kts | 138° |
| 2026-05-04 00:46 | 9.04024 | 127.02263 | 35012 ft | 476 kts | 138° |
| 2026-05-04 00:47 | 8.99067 | 127.06736 | 35012 ft | 476 kts | 138° |
| 2026-05-04 00:47 | 8.94148 | 127.11173 | 35012 ft | 476 kts | 138° |
| 2026-05-04 00:48 | 8.89235 | 127.15604 | 35012 ft | 476 kts | 138° |
| 2026-05-04 00:48 | 8.84246 | 127.20100 | 35012 ft | 476 kts | 138° |
| 2026-05-04 00:49 | 8.79228 | 127.24620 | 35012 ft | 476 kts | 138° |
| 2026-05-04 00:49 | 8.74321 | 127.29039 | 35012 ft | 476 kts | 138° |
| 2026-05-04 00:50 | 8.69380 | 127.33487 | 35012 ft | 476 kts | 138° |
| 2026-05-04 00:50 | 8.64429 | 127.37943 | 35012 ft | 476 kts | 138° |
| 2026-05-04 00:51 | 8.59488 | 127.42389 | 35012 ft | 476 kts | 138° |
| 2026-05-04 00:51 | 8.54586 | 127.46798 | 35012 ft | 476 kts | 138° |
| 2026-05-04 00:52 | 8.49626 | 127.51257 | 35012 ft | 476 kts | 138° |
| 2026-05-04 00:52 | 8.44670 | 127.55711 | 35012 ft | 476 kts | 138° |
| 2026-05-04 00:53 | 8.39751 | 127.60130 | 35012 ft | 476 kts | 138° |
| 2026-05-04 00:53 | 8.34813 | 127.64565 | 35012 ft | 476 kts | 138° |
| 2026-05-04 00:54 | 8.29883 | 127.68991 | 35012 ft | 476 kts | 138° |
| 2026-05-04 00:54 | 8.24952 | 127.73415 | 35012 ft | 476 kts | 138° |
| 2026-05-04 00:55 | 8.19992 | 127.77865 | 35012 ft | 476 kts | 138° |
| 2026-05-04 00:55 | 8.15032 | 127.82313 | 35012 ft | 476 kts | 138° |
| 2026-05-04 00:56 | 8.10111 | 127.86725 | 35012 ft | 476 kts | 138° |
| 2026-05-04 00:56 | 8.05160 | 127.91161 | 35012 ft | 476 kts | 138° |
| 2026-05-04 00:57 | 8.00216 | 127.95591 | 35012 ft | 476 kts | 138° |
| 2026-05-04 00:57 | 7.95305 | 127.99989 | 35012 ft | 476 kts | 138° |
| 2026-05-04 00:58 | 7.90338 | 128.04436 | 35012 ft | 476 kts | 138° |
| 2026-05-04 00:58 | 7.85394 | 128.08861 | 35012 ft | 476 kts | 138° |
| 2026-05-04 00:59 | 7.80446 | 128.13287 | 35012 ft | 476 kts | 138° |
| 2026-05-04 00:59 | 7.75505 | 128.17706 | 35012 ft | 476 kts | 138° |
| 2026-05-04 01:00 | 7.70532 | 128.22153 | 35012 ft | 476 kts | 138° |
| 2026-05-04 01:00 | 7.65591 | 128.26569 | 35012 ft | 476 kts | 138° |
| 2026-05-04 01:01 | 7.60622 | 128.31007 | 35012 ft | 476 kts | 138° |
| 2026-05-04 01:01 | 7.55623 | 128.35474 | 35012 ft | 476 kts | 138° |
| 2026-05-04 01:02 | 7.50655 | 128.39909 | 35012 ft | 476 kts | 138° |
| 2026-05-04 01:02 | 7.45678 | 128.44353 | 35012 ft | 476 kts | 138° |
| 2026-05-04 01:03 | 7.40756 | 128.48744 | 35012 ft | 476 kts | 138° |
| 2026-05-04 01:03 | 7.35789 | 128.53175 | 35012 ft | 476 kts | 138° |
| 2026-05-04 01:04 | 7.30859 | 128.57571 | 35012 ft | 476 kts | 138° |
| 2026-05-04 01:04 | 7.25905 | 128.61989 | 35012 ft | 476 kts | 138° |
| 2026-05-04 01:05 | 7.20951 | 128.66444 | 35012 ft | 476 kts | 138° |
| 2026-05-04 01:05 | 7.16038 | 128.70882 | 35012 ft | 476 kts | 138° |
| 2026-05-04 01:06 | 7.11127 | 128.75317 | 35012 ft | 476 kts | 138° |
| 2026-05-04 01:06 | 7.05759 | 128.79126 | 35010 ft | 476 kts | 157° |
| 2026-05-04 01:06 | 7.02601 | 128.80165 | 35011 ft | 477 kts | 169° |
| 2026-05-04 01:07 | 6.99315 | 128.80522 | 35012 ft | 477 kts | 180° |
| 2026-05-04 01:07 | 6.96020 | 128.80188 | 35012 ft | 477 kts | 192° |
| 2026-05-04 01:07 | 6.92884 | 128.79184 | 35012 ft | 477 kts | 204° |
| 2026-05-04 01:07 | 6.89986 | 128.77528 | 35012 ft | 477 kts | 216° |
| 2026-05-04 01:08 | 6.87497 | 128.75307 | 35012 ft | 477 kts | 228° |
| 2026-05-04 01:08 | 6.85540 | 128.72652 | 35012 ft | 477 kts | 240° |
| 2026-05-04 01:08 | 6.84161 | 128.69636 | 35012 ft | 477 kts | 252° |
| 2026-05-04 01:08 | 6.83420 | 128.66348 | 35012 ft | 477 kts | 264° |
| 2026-05-04 01:09 | 6.83373 | 128.63019 | 35012 ft | 477 kts | 276° |
| 2026-05-04 01:09 | 6.84016 | 128.59727 | 35012 ft | 477 kts | 288° |
| 2026-05-04 01:09 | 6.85325 | 128.56638 | 35012 ft | 477 kts | 300° |
| 2026-05-04 01:10 | 6.89198 | 128.51222 | 35014 ft | 477 kts | 309° |
| 2026-05-04 01:10 | 6.93353 | 128.46043 | 35012 ft | 477 kts | 309° |
| 2026-05-04 01:11 | 6.97534 | 128.40868 | 35012 ft | 477 kts | 309° |
| 2026-05-04 01:11 | 7.00904 | 128.35193 | 35011 ft | 477 kts | 291° |
| 2026-05-04 01:12 | 7.02839 | 128.28825 | 35013 ft | 477 kts | 285° |
| 2026-05-04 01:12 | 7.04643 | 128.22374 | 35012 ft | 477 kts | 286° |
| 2026-05-04 01:13 | 7.06462 | 128.15965 | 35012 ft | 477 kts | 286° |
| 2026-05-04 01:13 | 7.08261 | 128.09685 | 35012 ft | 477 kts | 286° |
| 2026-05-04 01:14 | 7.10097 | 128.03294 | 35012 ft | 477 kts | 286° |
| 2026-05-04 01:14 | 7.11935 | 127.96902 | 35012 ft | 477 kts | 286° |
| 2026-05-04 01:15 | 7.13776 | 127.90500 | 35012 ft | 477 kts | 286° |
| 2026-05-04 01:15 | 7.15626 | 127.84064 | 35012 ft | 477 kts | 286° |
| 2026-05-04 01:16 | 7.17457 | 127.77689 | 35012 ft | 477 kts | 286° |
| 2026-05-04 01:16 | 7.19297 | 127.71281 | 35012 ft | 477 kts | 286° |
| 2026-05-04 01:17 | 7.21128 | 127.64898 | 35012 ft | 477 kts | 286° |
| 2026-05-04 01:17 | 7.22975 | 127.58460 | 35012 ft | 477 kts | 286° |
| 2026-05-04 01:18 | 7.24802 | 127.52085 | 35012 ft | 477 kts | 286° |
| 2026-05-04 01:18 | 7.26633 | 127.45693 | 35012 ft | 477 kts | 286° |
| 2026-05-04 01:19 | 7.28476 | 127.39254 | 35012 ft | 477 kts | 286° |
| 2026-05-04 01:19 | 7.30298 | 127.32884 | 35012 ft | 477 kts | 286° |
| 2026-05-04 01:20 | 7.32133 | 127.26468 | 35012 ft | 477 kts | 286° |
| 2026-05-04 01:20 | 7.33957 | 127.20086 | 35012 ft | 477 kts | 286° |
| 2026-05-04 01:21 | 7.35780 | 127.13703 | 35012 ft | 477 kts | 286° |
| 2026-05-04 01:21 | 7.37587 | 127.07373 | 35013 ft | 477 kts | 286° |
| 2026-05-04 01:22 | 7.39408 | 127.00991 | 35012 ft | 477 kts | 286° |
| 2026-05-04 01:22 | 7.41240 | 126.94567 | 35012 ft | 477 kts | 286° |
| 2026-05-04 01:23 | 7.43064 | 126.88165 | 35012 ft | 477 kts | 286° |
| 2026-05-04 01:23 | 7.44890 | 126.81754 | 35012 ft | 477 kts | 286° |
| 2026-05-04 01:24 | 7.46710 | 126.75357 | 35012 ft | 477 kts | 286° |
| 2026-05-04 01:24 | 7.48534 | 126.68944 | 35012 ft | 477 kts | 286° |
| 2026-05-04 01:25 | 7.50356 | 126.62536 | 35012 ft | 477 kts | 286° |
| 2026-05-04 01:25 | 7.52188 | 126.56088 | 35012 ft | 477 kts | 286° |
| 2026-05-04 01:26 | 7.54003 | 126.49698 | 35012 ft | 477 kts | 286° |
| 2026-05-04 01:26 | 7.55825 | 126.43277 | 35012 ft | 477 kts | 286° |
| 2026-05-04 01:27 | 7.57640 | 126.36875 | 35012 ft | 477 kts | 286° |
| 2026-05-04 01:27 | 7.59460 | 126.30454 | 35012 ft | 477 kts | 286° |
| 2026-05-04 01:28 | 7.61274 | 126.24052 | 35012 ft | 477 kts | 286° |
| 2026-05-04 01:28 | 7.63097 | 126.17613 | 35012 ft | 477 kts | 286° |
| 2026-05-04 01:29 | 7.64912 | 126.11197 | 35012 ft | 477 kts | 286° |
| 2026-05-04 01:29 | 7.66720 | 126.04803 | 35012 ft | 477 kts | 286° |
| 2026-05-04 01:30 | 7.68531 | 125.98395 | 35012 ft | 477 kts | 286° |
| 2026-05-04 01:30 | 7.70349 | 125.91959 | 35012 ft | 477 kts | 286° |
| 2026-05-04 01:31 | 7.72165 | 125.85525 | 35012 ft | 477 kts | 286° |
| 2026-05-04 01:31 | 7.73981 | 125.79086 | 35012 ft | 477 kts | 286° |
| 2026-05-04 01:32 | 7.75788 | 125.72675 | 35012 ft | 477 kts | 286° |
| 2026-05-04 01:32 | 7.77598 | 125.66251 | 35012 ft | 477 kts | 286° |
| 2026-05-04 01:33 | 7.79409 | 125.59820 | 35012 ft | 477 kts | 286° |
| 2026-05-04 01:33 | 7.81211 | 125.53416 | 35012 ft | 477 kts | 286° |
| 2026-05-04 01:34 | 7.83021 | 125.46980 | 35012 ft | 477 kts | 286° |
| 2026-05-04 01:34 | 7.84824 | 125.40566 | 35012 ft | 477 kts | 286° |
| 2026-05-04 01:35 | 7.86625 | 125.34155 | 35012 ft | 477 kts | 285° |
| 2026-05-04 01:35 | 7.88435 | 125.27712 | 35012 ft | 477 kts | 285° |
| 2026-05-04 01:36 | 7.90230 | 125.21318 | 35012 ft | 477 kts | 285° |
| 2026-05-04 01:36 | 7.92024 | 125.14926 | 35012 ft | 477 kts | 285° |
| 2026-05-04 01:37 | 7.93827 | 125.08493 | 35012 ft | 477 kts | 285° |
| 2026-05-04 01:37 | 7.96111 | 125.02222 | 35011 ft | 477 kts | 296° |
| 2026-05-04 01:38 | 7.99539 | 124.96484 | 35012 ft | 477 kts | 307° |
| 2026-05-04 01:38 | 8.03997 | 124.91545 | 35012 ft | 477 kts | 318° |
| 2026-05-04 01:39 | 8.09079 | 124.87318 | 35012 ft | 477 kts | 321° |
| 2026-05-04 01:39 | 8.14247 | 124.83151 | 35012 ft | 477 kts | 321° |
| 2026-05-04 01:40 | 8.19324 | 124.79034 | 35012 ft | 477 kts | 321° |
| 2026-05-04 01:40 | 8.24495 | 124.74825 | 35012 ft | 477 kts | 321° |
| 2026-05-04 01:41 | 8.29647 | 124.70627 | 35012 ft | 477 kts | 321° |
| 2026-05-04 01:41 | 8.34796 | 124.66429 | 35012 ft | 477 kts | 321° |
| 2026-05-04 01:42 | 8.39992 | 124.62276 | 35012 ft | 477 kts | 324° |
| 2026-05-04 01:42 | 8.45536 | 124.58597 | 35012 ft | 477 kts | 330° |
| 2026-05-04 01:43 | 8.51274 | 124.55275 | 35012 ft | 477 kts | 330° |
| 2026-05-04 01:43 | 8.57014 | 124.51976 | 35012 ft | 477 kts | 330° |
| 2026-05-04 01:44 | 8.62737 | 124.48679 | 35012 ft | 477 kts | 330° |
| 2026-05-04 01:44 | 8.68493 | 124.45358 | 35012 ft | 477 kts | 330° |
| 2026-05-04 01:45 | 8.74233 | 124.42043 | 35012 ft | 477 kts | 330° |
| 2026-05-04 01:45 | 8.82887 | 124.37044 | 35012 ft | 477 kts | 330° |
| 2026-05-04 01:46 | 8.88617 | 124.33733 | 35012 ft | 477 kts | 330° |
| 2026-05-04 01:46 | 8.94386 | 124.30399 | 35012 ft | 477 kts | 330° |
| 2026-05-04 01:47 | 9.00123 | 124.27083 | 35012 ft | 477 kts | 330° |
| 2026-05-04 01:47 | 9.05865 | 124.23756 | 35012 ft | 477 kts | 330° |
| 2026-05-04 01:48 | 9.11623 | 124.20412 | 35012 ft | 477 kts | 330° |
| 2026-05-04 01:48 | 9.17298 | 124.17117 | 35012 ft | 477 kts | 330° |
| 2026-05-04 01:49 | 9.23042 | 124.13784 | 35012 ft | 477 kts | 330° |
| 2026-05-04 01:49 | 9.28848 | 124.10415 | 35012 ft | 477 kts | 330° |
| 2026-05-04 01:50 | 9.34623 | 124.07063 | 35012 ft | 477 kts | 330° |
| 2026-05-04 01:50 | 9.40361 | 124.03737 | 35012 ft | 477 kts | 330° |
| 2026-05-04 01:51 | 9.46110 | 124.00423 | 35012 ft | 477 kts | 330° |
| 2026-05-04 01:51 | 9.51840 | 123.97105 | 35012 ft | 477 kts | 330° |
| 2026-05-04 01:52 | 9.57614 | 123.93746 | 35012 ft | 477 kts | 330° |
| 2026-05-04 01:52 | 9.63346 | 123.90414 | 35012 ft | 477 kts | 330° |
| 2026-05-04 01:53 | 9.69089 | 123.87076 | 35012 ft | 477 kts | 330° |
| 2026-05-04 01:53 | 9.74815 | 123.83749 | 35012 ft | 478 kts | 330° |
| 2026-05-04 01:54 | 9.80587 | 123.80394 | 35012 ft | 478 kts | 330° |
| 2026-05-04 01:54 | 9.86372 | 123.77030 | 35012 ft | 478 kts | 330° |
| 2026-05-04 01:55 | 9.92100 | 123.73695 | 35012 ft | 478 kts | 330° |
| 2026-05-04 01:55 | 9.97848 | 123.70338 | 35012 ft | 478 kts | 330° |
| 2026-05-04 01:56 | 10.03606 | 123.66976 | 35012 ft | 478 kts | 330° |
| 2026-05-04 01:56 | 10.09369 | 123.63613 | 35012 ft | 478 kts | 330° |
| 2026-05-04 01:57 | 10.15115 | 123.60259 | 35012 ft | 478 kts | 330° |
| 2026-05-04 01:57 | 10.20850 | 123.56912 | 35012 ft | 478 kts | 330° |
| 2026-05-04 01:58 | 10.26601 | 123.53553 | 35012 ft | 478 kts | 330° |
| 2026-05-04 01:58 | 10.32340 | 123.50200 | 35012 ft | 478 kts | 330° |
| 2026-05-04 01:59 | 10.38250 | 123.47218 | 35007 ft | 478 kts | 343° |
| 2026-05-04 01:59 | 10.41506 | 123.46560 | 35010 ft | 478 kts | 355° |
| 2026-05-04 01:59 | 10.44845 | 123.46574 | 35014 ft | 478 kts | 5° |
| 2026-05-04 02:00 | 10.51385 | 123.47412 | 35010 ft | 478 kts | 11° |
| 2026-05-04 02:00 | 10.54573 | 123.48368 | 35009 ft | 478 kts | 22° |
| 2026-05-04 02:00 | 10.57572 | 123.49786 | 35014 ft | 478 kts | 27° |
| 2026-05-04 02:01 | 10.63423 | 123.52920 | 35013 ft | 478 kts | 28° |
| 2026-05-04 02:01 | 10.69320 | 123.56141 | 35012 ft | 478 kts | 28° |
| 2026-05-04 02:02 | 10.75169 | 123.59340 | 35012 ft | 478 kts | 28° |
| 2026-05-04 02:02 | 10.81081 | 123.62495 | 35007 ft | 478 kts | 22° |
| 2026-05-04 02:03 | 10.84192 | 123.63486 | 35010 ft | 478 kts | 11° |
| 2026-05-04 02:03 | 10.87527 | 123.63821 | 35011 ft | 478 kts | 359° |
| 2026-05-04 02:03 | 10.90797 | 123.63460 | 35012 ft | 478 kts | 347° |
| 2026-05-04 02:03 | 10.93929 | 123.62430 | 35012 ft | 478 kts | 335° |
| 2026-05-04 02:04 | 10.99723 | 123.59092 | 35014 ft | 478 kts | 328° |
| 2026-05-04 02:04 | 11.05378 | 123.55535 | 35012 ft | 478 kts | 328° |
| 2026-05-04 02:05 | 11.10971 | 123.52000 | 35012 ft | 478 kts | 328° |
| 2026-05-04 02:05 | 11.16639 | 123.48412 | 35012 ft | 478 kts | 328° |
| 2026-05-04 02:06 | 11.22277 | 123.44843 | 35012 ft | 478 kts | 328° |
| 2026-05-04 02:06 | 11.27883 | 123.41291 | 35012 ft | 478 kts | 328° |
| 2026-05-04 02:07 | 11.33522 | 123.37716 | 35012 ft | 478 kts | 328° |
| 2026-05-04 02:07 | 11.39132 | 123.34158 | 35012 ft | 478 kts | 328° |
| 2026-05-04 02:08 | 11.44329 | 123.30054 | 35013 ft | 478 kts | 319° |
| 2026-05-04 02:08 | 11.49317 | 123.25555 | 35012 ft | 478 kts | 318° |
| 2026-05-04 02:09 | 11.54274 | 123.21127 | 35020 ft | 478 kts | 319° |
| 2026-05-04 02:09 | 11.59280 | 123.16666 | 35013 ft | 478 kts | 319° |
| 2026-05-04 02:10 | 11.64285 | 123.12219 | 35012 ft | 478 kts | 319° |
| 2026-05-04 02:10 | 11.69310 | 123.07758 | 35012 ft | 478 kts | 319° |
| 2026-05-04 02:11 | 11.74308 | 123.03323 | 35012 ft | 478 kts | 319° |
| 2026-05-04 02:11 | 11.79326 | 122.98867 | 35012 ft | 478 kts | 319° |
| 2026-05-04 02:12 | 11.84338 | 122.94415 | 35012 ft | 478 kts | 319° |
| 2026-05-04 02:12 | 11.89339 | 122.89972 | 35012 ft | 478 kts | 319° |
| 2026-05-04 02:13 | 11.94319 | 122.85544 | 35012 ft | 478 kts | 319° |
| 2026-05-04 02:13 | 11.99330 | 122.81086 | 35012 ft | 478 kts | 319° |
| 2026-05-04 02:14 | 12.04325 | 122.76640 | 35012 ft | 478 kts | 319° |
| 2026-05-04 02:14 | 12.09315 | 122.72197 | 35012 ft | 478 kts | 319° |
| 2026-05-04 02:15 | 12.14334 | 122.67726 | 35012 ft | 478 kts | 319° |
| 2026-05-04 02:15 | 12.19336 | 122.63268 | 35012 ft | 478 kts | 319° |
| 2026-05-04 02:16 | 12.21850 | 122.61026 | 34867 ft | 479 kts | 319° |
| 2026-05-04 02:16 | 12.24383 | 122.58766 | 34614 ft | 476 kts | 319° |
| 2026-05-04 02:16 | 12.26877 | 122.56541 | 34364 ft | 474 kts | 319° |
| 2026-05-04 02:16 | 12.29415 | 122.54275 | 34108 ft | 471 kts | 319° |
| 2026-05-04 02:17 | 12.31874 | 122.52081 | 33860 ft | 469 kts | 319° |
| 2026-05-04 02:17 | 12.34329 | 122.49889 | 33611 ft | 469 kts | 319° |
| 2026-05-04 02:17 | 12.36805 | 122.47678 | 33360 ft | 469 kts | 319° |
| 2026-05-04 02:17 | 12.39258 | 122.45486 | 33111 ft | 469 kts | 319° |
| 2026-05-04 02:18 | 12.41729 | 122.43278 | 32861 ft | 470 kts | 319° |
| 2026-05-04 02:18 | 12.44174 | 122.41093 | 32613 ft | 470 kts | 319° |
| 2026-05-04 02:18 | 12.46637 | 122.38891 | 32364 ft | 470 kts | 319° |
| 2026-05-04 02:18 | 12.49090 | 122.36697 | 32116 ft | 471 kts | 319° |
| 2026-05-04 02:19 | 12.51554 | 122.34493 | 31867 ft | 471 kts | 319° |
| 2026-05-04 02:19 | 12.54013 | 122.32293 | 31618 ft | 471 kts | 319° |
| 2026-05-04 02:19 | 12.56476 | 122.30088 | 31370 ft | 472 kts | 319° |
| 2026-05-04 02:19 | 12.58974 | 122.27853 | 31118 ft | 472 kts | 319° |
| 2026-05-04 02:20 | 12.61462 | 122.25624 | 30867 ft | 473 kts | 319° |
| 2026-05-04 02:20 | 12.63937 | 122.23407 | 30617 ft | 473 kts | 319° |
| 2026-05-04 02:20 | 12.66396 | 122.21204 | 30370 ft | 473 kts | 319° |
| 2026-05-04 02:20 | 12.68893 | 122.18966 | 30118 ft | 474 kts | 319° |
| 2026-05-04 02:21 | 12.71395 | 122.16723 | 29867 ft | 474 kts | 319° |
| 2026-05-04 02:21 | 12.73920 | 122.14459 | 29613 ft | 474 kts | 319° |
| 2026-05-04 02:21 | 12.76386 | 122.12247 | 29365 ft | 475 kts | 319° |
| 2026-05-04 02:21 | 12.78866 | 122.10023 | 29076 ft | 475 kts | 319° |
| 2026-05-04 02:22 | 12.81373 | 122.07772 | 28640 ft | 476 kts | 319° |
| 2026-05-04 02:22 | 12.83857 | 122.05543 | 28068 ft | 476 kts | 319° |
| 2026-05-04 02:22 | 12.86309 | 122.03341 | 27607 ft | 471 kts | 319° |
| 2026-05-04 02:22 | 12.88774 | 122.01127 | 27193 ft | 466 kts | 319° |
| 2026-05-04 02:23 | 12.91211 | 121.98937 | 26688 ft | 462 kts | 319° |
| 2026-05-04 02:23 | 12.93585 | 121.96804 | 26227 ft | 458 kts | 319° |
| 2026-05-04 02:23 | 12.96025 | 121.94611 | 25769 ft | 453 kts | 319° |
| 2026-05-04 02:23 | 12.98389 | 121.92486 | 25332 ft | 448 kts | 319° |
| 2026-05-04 02:24 | 13.00737 | 121.90375 | 24896 ft | 444 kts | 319° |
| 2026-05-04 02:24 | 13.03083 | 121.88264 | 24461 ft | 440 kts | 319° |
| 2026-05-04 02:24 | 13.05398 | 121.86181 | 24028 ft | 436 kts | 319° |
| 2026-05-04 02:24 | 13.07651 | 121.84154 | 23607 ft | 432 kts | 319° |
| 2026-05-04 02:25 | 13.09906 | 121.82124 | 23181 ft | 428 kts | 319° |
| 2026-05-04 02:25 | 13.12161 | 121.80093 | 22753 ft | 424 kts | 319° |
| 2026-05-04 02:25 | 13.14347 | 121.78124 | 22337 ft | 421 kts | 319° |
| 2026-05-04 02:25 | 13.16532 | 121.76157 | 21919 ft | 418 kts | 319° |
| 2026-05-04 02:26 | 13.18698 | 121.74204 | 21502 ft | 414 kts | 319° |
| 2026-05-04 02:26 | 13.20847 | 121.72268 | 21086 ft | 411 kts | 319° |
| 2026-05-04 02:26 | 13.22981 | 121.70345 | 20672 ft | 408 kts | 319° |
| 2026-05-04 02:26 | 13.25117 | 121.68419 | 20253 ft | 405 kts | 319° |
| 2026-05-04 02:27 | 13.27219 | 121.66523 | 19839 ft | 402 kts | 319° |
| 2026-05-04 02:27 | 13.29294 | 121.64651 | 19430 ft | 400 kts | 319° |
| 2026-05-04 02:27 | 13.31381 | 121.62768 | 19017 ft | 397 kts | 319° |
| 2026-05-04 02:27 | 13.33427 | 121.60922 | 18609 ft | 394 kts | 319° |
| 2026-05-04 02:28 | 13.35493 | 121.59056 | 18196 ft | 392 kts | 319° |
| 2026-05-04 02:28 | 13.37477 | 121.57265 | 17798 ft | 389 kts | 319° |
| 2026-05-04 02:28 | 13.39487 | 121.55450 | 17391 ft | 387 kts | 319° |
| 2026-05-04 02:28 | 13.41564 | 121.53573 | 16970 ft | 384 kts | 319° |
| 2026-05-04 02:29 | 13.43589 | 121.51744 | 16747 ft | 375 kts | 319° |
| 2026-05-04 02:29 | 13.45408 | 121.50101 | 16662 ft | 363 kts | 319° |
| 2026-05-04 02:29 | 13.47287 | 121.48403 | 16556 ft | 351 kts | 319° |
| 2026-05-04 02:29 | 13.49127 | 121.46739 | 16451 ft | 339 kts | 319° |
| 2026-05-04 02:30 | 13.50870 | 121.45164 | 16349 ft | 328 kts | 319° |
| 2026-05-04 02:30 | 13.52544 | 121.43651 | 16254 ft | 317 kts | 319° |
| 2026-05-04 02:30 | 13.54164 | 121.42185 | 16164 ft | 307 kts | 319° |
| 2026-05-04 02:30 | 13.55742 | 121.40757 | 16078 ft | 297 kts | 319° |
| 2026-05-04 02:31 | 13.57299 | 121.39400 | 15993 ft | 292 kts | 322° |
| 2026-05-04 02:31 | 13.58876 | 121.38180 | 15995 ft | 305 kts | 324° |
| 2026-05-04 02:31 | 13.60609 | 121.36887 | 16000 ft | 308 kts | 324° |
| 2026-05-04 02:31 | 13.62365 | 121.35581 | 16001 ft | 309 kts | 324° |
| 2026-05-04 02:32 | 13.64115 | 121.34280 | 15912 ft | 310 kts | 324° |
| 2026-05-04 02:32 | 13.65855 | 121.32985 | 15531 ft | 311 kts | 324° |
| 2026-05-04 02:32 | 13.67615 | 121.31696 | 15116 ft | 312 kts | 325° |
| 2026-05-04 02:32 | 13.69384 | 121.30424 | 14665 ft | 314 kts | 325° |
| 2026-05-04 02:33 | 13.71150 | 121.29157 | 14394 ft | 309 kts | 325° |
| 2026-05-04 02:33 | 13.72899 | 121.27902 | 14124 ft | 305 kts | 325° |
| 2026-05-04 02:33 | 13.74661 | 121.26636 | 13850 ft | 300 kts | 325° |
| 2026-05-04 02:33 | 13.76356 | 121.25418 | 13559 ft | 297 kts | 325° |
| 2026-05-04 02:34 | 13.78036 | 121.24211 | 13225 ft | 295 kts | 325° |
| 2026-05-04 02:34 | 13.79709 | 121.23008 | 12885 ft | 294 kts | 325° |
| 2026-05-04 02:34 | 13.81373 | 121.21812 | 12547 ft | 292 kts | 325° |
| 2026-05-04 02:34 | 13.83029 | 121.20620 | 12211 ft | 291 kts | 325° |
| 2026-05-04 02:35 | 13.84695 | 121.19421 | 11871 ft | 289 kts | 325° |
| 2026-05-04 02:35 | 13.86333 | 121.18242 | 11534 ft | 288 kts | 325° |
| 2026-05-04 02:35 | 13.87961 | 121.17070 | 11198 ft | 286 kts | 325° |
| 2026-05-04 02:35 | 13.89597 | 121.15892 | 10859 ft | 285 kts | 325° |
| 2026-05-04 02:36 | 13.91199 | 121.14738 | 10526 ft | 283 kts | 325° |
| 2026-05-04 02:36 | 13.92815 | 121.13574 | 10257 ft | 279 kts | 325° |
| 2026-05-04 02:36 | 13.94365 | 121.12458 | 10155 ft | 270 kts | 325° |
| 2026-05-04 02:36 | 13.95903 | 121.11350 | 10100 ft | 265 kts | 325° |
| 2026-05-04 02:37 | 13.97407 | 121.10267 | 10059 ft | 262 kts | 325° |
| 2026-05-04 02:37 | 14.00458 | 121.08068 | 9478 ft | 264 kts | 325° |
| 2026-05-04 02:37 | 14.02059 | 121.06914 | 9253 ft | 272 kts | 325° |
| 2026-05-04 02:37 | 14.03604 | 121.05799 | 8952 ft | 273 kts | 325° |
| 2026-05-04 02:38 | 14.05150 | 121.04684 | 8616 ft | 273 kts | 325° |
| 2026-05-04 02:38 | 14.06710 | 121.03558 | 8304 ft | 272 kts | 325° |
| 2026-05-04 02:38 | 14.08243 | 121.02452 | 8008 ft | 270 kts | 325° |
| 2026-05-04 02:38 | 14.09781 | 121.01342 | 7715 ft | 269 kts | 325° |
| 2026-05-04 02:39 | 14.11307 | 121.00241 | 7425 ft | 267 kts | 325° |
| 2026-05-04 02:39 | 14.12840 | 120.99135 | 7134 ft | 266 kts | 325° |
| 2026-05-04 02:39 | 14.14399 | 120.98010 | 6839 ft | 265 kts | 325° |
| 2026-05-04 02:39 | 14.15891 | 120.96931 | 6556 ft | 263 kts | 325° |
| 2026-05-04 02:40 | 14.17396 | 120.95844 | 6273 ft | 262 kts | 325° |
| 2026-05-04 02:40 | 14.18882 | 120.94772 | 5993 ft | 261 kts | 325° |
| 2026-05-04 02:40 | 14.20351 | 120.93710 | 5714 ft | 260 kts | 325° |
| 2026-05-04 02:40 | 14.21823 | 120.92648 | 5435 ft | 259 kts | 325° |
| 2026-05-04 02:41 | 14.23303 | 120.91577 | 5155 ft | 257 kts | 325° |
| 2026-05-04 02:41 | 14.24758 | 120.90526 | 5026 ft | 250 kts | 325° |
| 2026-05-04 02:41 | 14.26140 | 120.89526 | 5017 ft | 237 kts | 325° |
| 2026-05-04 02:41 | 14.27464 | 120.88587 | 5013 ft | 225 kts | 328° |
| 2026-05-04 02:42 | 14.28766 | 120.87797 | 5021 ft | 211 kts | 330° |
| 2026-05-04 02:42 | 14.30014 | 120.87075 | 4823 ft | 201 kts | 331° |
| 2026-05-04 02:42 | 14.31223 | 120.86380 | 4550 ft | 196 kts | 331° |
| 2026-05-04 02:42 | 14.32383 | 120.85712 | 4313 ft | 189 kts | 331° |
| 2026-05-04 02:43 | 14.33520 | 120.85055 | 4099 ft | 188 kts | 331° |
| 2026-05-04 02:43 | 14.34673 | 120.84403 | 3879 ft | 188 kts | 337° |
| 2026-05-04 02:43 | 14.35934 | 120.84279 | 3638 ft | 187 kts | 14° |
| 2026-05-04 02:43 | 14.37151 | 120.84765 | 3426 ft | 186 kts | 25° |
| 2026-05-04 02:44 | 14.38295 | 120.85355 | 3130 ft | 184 kts | 27° |
| 2026-05-04 02:44 | 14.39422 | 120.85960 | 3028 ft | 184 kts | 27° |
| 2026-05-04 02:44 | 14.40570 | 120.86580 | 3027 ft | 185 kts | 27° |
| 2026-05-04 02:44 | 14.41716 | 120.87200 | 3024 ft | 185 kts | 27° |
| 2026-05-04 02:45 | 14.42775 | 120.87914 | 3022 ft | 185 kts | 43° |
| 2026-05-04 02:45 | 14.43588 | 120.88914 | 2823 ft | 181 kts | 55° |
| 2026-05-04 02:45 | 14.44269 | 120.90034 | 2455 ft | 183 kts | 59° |
| 2026-05-04 02:45 | 14.44881 | 120.91151 | 2145 ft | 174 kts | 60° |
| 2026-05-04 02:46 | 14.45444 | 120.92191 | 1931 ft | 159 kts | 60° |
| 2026-05-04 02:46 | 14.45975 | 120.93159 | 1616 ft | 153 kts | 60° |
| 2026-05-04 02:46 | 14.46504 | 120.94114 | 1408 ft | 154 kts | 60° |
| 2026-05-04 02:46 | 14.47041 | 120.95078 | 1207 ft | 154 kts | 60° |
| 2026-05-04 02:47 | 14.47571 | 120.96031 | 1005 ft | 153 kts | 60° |
| 2026-05-04 02:47 | 14.48100 | 120.96982 | 803 ft | 153 kts | 60° |
| 2026-05-04 02:47 | 14.48637 | 120.97946 | 581 ft | 152 kts | 59° |
| 2026-05-04 02:47 | 14.49159 | 120.98880 | 387 ft | 152 kts | 60° |
| 2026-05-04 02:48 | 14.49685 | 120.99827 | 194 ft | 151 kts | 60° |
| 2026-05-04 02:48 | 14.50189 | 121.00744 | 96 ft | 134 kts | 58° |
| 2026-05-04 02:48 | 14.50571 | 121.01429 | 93 ft | 83 kts | 59° |
| 2026-05-04 02:48 | 14.50780 | 121.01804 | 93 ft | 42 kts | 59° |
| 2026-05-04 02:49 | 14.50892 | 121.02007 | 93 ft | 29 kts | 60° |
| 2026-05-04 02:49 | 14.50961 | 121.02129 | 93 ft | 14 kts | 54° |
| 2026-05-04 02:49 | 14.51037 | 121.02209 | 93 ft | 16 kts | 43° |
| 2026-05-04 02:49 | 14.51111 | 121.02280 | 93 ft | 5 kts | 40° |
| 2026-05-04 02:50 | 14.51156 | 121.02299 | 93 ft | 8 kts | 359° |
| 2026-05-04 02:50 | 14.51202 | 121.02277 | 93 ft | 6 kts | 320° |
| 2026-05-04 02:50 | 14.51240 | 121.02247 | 93 ft | 7 kts | 327° |
| 2026-05-04 02:50 | 14.51285 | 121.02217 | 93 ft | 5 kts | 332° |
| 2026-05-04 02:51 | 14.51306 | 121.02214 | 93 ft | 0 kts | 1° |